Time;durP1;ratioP1;P1;durP2;ratioP2;P2;SDS_P1;SDS_P2;PMS_P1;PMS_P2;Temp;Humidity;BMP_temperature;BMP_pressure;BME280_temperature;BME280_humidity;BME280_pressure;Samples;Min_cycle;Max_cycle;Signal;HPM_P1;HPM_P2
2022/08/29 00:00:09;;;;;;;80.62;50.15;;;;;;;15.78;100.00;98991.39;1743416;80;21472;-73
2022/08/29 00:02:36;;;;;;;85.20;50.98;;;;;;;15.69;100.00;98998.00;1731554;82;21445;-73
2022/08/29 00:05:06;;;;;;;88.75;54.42;;;;;;;15.62;100.00;99003.02;1750448;80;21899;-73
2022/08/29 00:07:32;;;;;;;90.87;51.33;;;;;;;15.55;100.00;99000.70;1737366;80;20884;-73
2022/08/29 00:10:00;;;;;;;86.85;52.33;;;;;;;15.55;100.00;98994.49;1735928;81;20899;-73
2022/08/29 00:12:27;;;;;;;87.02;52.53;;;;;;;15.57;100.00;98997.70;1745483;81;20904;-73
2022/08/29 00:14:55;;;;;;;80.17;50.03;;;;;;;15.62;100.00;98999.75;1739576;81;20990;-73
2022/08/29 00:17:22;;;;;;;93.87;53.75;;;;;;;15.69;100.00;98998.56;1745209;82;21253;-73
2022/08/29 00:19:49;;;;;;;92.10;51.08;;;;;;;15.72;100.00;98992.58;1738817;80;20896;-73
2022/08/29 00:22:16;;;;;;;82.78;48.60;;;;;;;15.70;100.00;98990.72;1733421;81;20943;-73
2022/08/29 00:24:43;;;;;;;83.95;48.92;;;;;;;15.70;100.00;98990.72;1733273;80;21410;-74
2022/08/29 00:27:10;;;;;;;76.97;47.88;;;;;;;15.74;100.00;98993.08;1725348;81;20912;-74
2022/08/29 00:29:37;;;;;;;82.00;48.05;;;;;;;15.74;100.00;98991.73;1738515;80;21487;-73
2022/08/29 00:32:05;;;;;;;76.97;47.85;;;;;;;15.68;100.00;98993.71;1738111;80;20962;-73
2022/08/29 00:34:31;;;;;;;83.73;49.03;;;;;;;15.65;100.00;99003.23;1745271;82;21347;-73
2022/08/29 00:36:58;;;;;;;75.03;45.60;;;;;;;15.65;100.00;98995.64;1736845;80;20972;-73
2022/08/29 00:39:25;;;;;;;79.60;50.08;;;;;;;15.64;100.00;98998.91;1739562;82;20967;-73
2022/08/29 00:41:52;;;;;;;73.12;47.78;;;;;;;15.57;100.00;98997.14;1739247;80;21207;-73
2022/08/29 00:44:18;;;;;;;83.27;49.77;;;;;;;15.52;100.00;98997.80;1745084;82;21437;-73
2022/08/29 00:46:50;;;;;;;89.58;51.13;;;;;;;15.47;100.00;98997.34;1744906;82;21493;-73
2022/08/29 00:49:25;;;;;;;81.75;48.98;;;;;;;15.42;100.00;98992.83;1730696;80;20912;-73
2022/08/29 00:51:52;;;;;;;88.87;51.88;;;;;;;15.38;100.00;98999.13;1721396;80;20913;-73
2022/08/29 00:54:19;;;;;;;82.92;48.35;;;;;;;15.32;100.00;98994.37;1726523;80;21258;-73
2022/08/29 00:56:46;;;;;;;90.07;52.43;;;;;;;15.28;100.00;98999.33;1706370;82;20904;-73
2022/08/29 00:59:21;;;;;;;84.20;52.23;;;;;;;15.23;100.00;98999.66;1737691;80;20949;-73
2022/08/29 01:01:48;;;;;;;84.47;50.52;;;;;;;15.21;100.00;98995.13;1732732;80;20955;-74
2022/08/29 01:04:14;;;;;;;82.47;49.18;;;;;;;15.18;100.00;98992.20;1737075;80;21520;-73
2022/08/29 01:06:41;;;;;;;81.20;46.73;;;;;;;15.21;100.00;98993.77;1744643;82;21330;-73
2022/08/29 01:09:08;;;;;;;79.40;48.13;;;;;;;15.15;100.00;98989.55;1723497;81;20900;-73
2022/08/29 01:14:24;;;;;;;83.78;50.30;;;;;;;15.25;100.00;98987.77;1750825;80;21377;-73
2022/08/29 01:16:51;;;;;;;75.62;46.45;;;;;;;15.32;100.00;98988.17;1750829;80;20930;-75
2022/08/29 01:19:40;;;;;;;70.37;43.78;;;;;;;15.41;100.00;98987.74;1725888;81;21250;-75
2022/08/29 01:22:28;;;;;;;81.00;46.70;;;;;;;15.55;100.00;98985.82;1736146;81;20891;-75
2022/08/29 01:24:53;;;;;;;77.58;44.67;;;;;;;15.71;100.00;98984.22;1724685;81;20945;-74
2022/08/29 01:27:23;;;;;;;74.55;44.53;;;;;;;15.76;100.00;98985.47;1739743;81;20888;-74
2022/08/29 01:29:49;;;;;;;77.30;44.95;;;;;;;15.79;100.00;98984.86;1743819;82;20926;-74
2022/08/29 01:32:17;;;;;;;71.55;44.67;;;;;;;15.80;100.00;98980.51;1743297;82;21152;-74
2022/08/29 01:34:44;;;;;;;71.20;42.35;;;;;;;15.83;100.00;98988.02;1722932;81;21480;-74
2022/08/29 01:37:13;;;;;;;78.30;44.55;;;;;;;15.82;100.00;98981.54;1725461;81;21010;-75
2022/08/29 01:39:42;;;;;;;74.42;44.40;;;;;;;15.74;100.00;98982.26;1726422;81;20910;-74
2022/08/29 01:42:15;;;;;;;;;;;;;;;15.63;100.00;98990.55;1725169;83;20949;-74
2022/08/29 01:44:49;;;;;;;73.25;41.95;;;;;;;15.53;100.00;98981.81;1721740;81;21153;-74
2022/08/29 01:47:16;;;;;;;74.80;42.25;;;;;;;15.49;100.00;98980.83;1736727;81;20929;-74
2022/08/29 01:49:44;;;;;;;79.30;45.45;;;;;;;15.40;100.00;98976.66;1743590;81;21437;-74
2022/08/29 01:52:11;;;;;;;72.47;42.78;;;;;;;15.33;100.00;98974.34;1696465;83;20958;-74
2022/08/29 01:54:40;;;;;;;72.10;43.10;;;;;;;15.23;100.00;98977.23;1754149;80;20922;-74
2022/08/29 01:57:07;;;;;;;73.15;43.35;;;;;;;15.14;100.00;98977.66;1753691;80;21234;-74
2022/08/29 01:59:34;;;;;;;74.97;46.42;;;;;;;15.05;100.00;98978.13;1753664;81;20882;-74
2022/08/29 02:02:19;;;;;;;79.95;47.40;;;;;;;14.98;100.00;98971.73;1752927;80;20918;-74
2022/08/29 02:04:46;;;;;;;74.67;45.73;;;;;;;14.89;100.00;98969.45;1748683;80;20953;-75
2022/08/29 02:07:16;;;;;;;70.03;41.92;;;;;;;14.88;100.00;98965.16;1756186;81;20925;-75
2022/08/29 02:09:43;;;;;;;70.35;40.92;;;;;;;14.95;100.00;98961.53;1756500;81;21127;-74
2022/08/29 02:12:10;;;;;;;61.08;39.85;;;;;;;15.09;100.00;98967.77;1750307;80;20981;-74
2022/08/29 02:14:38;;;;;;;66.72;40.23;;;;;;;15.26;100.00;98967.17;1747101;81;20872;-74
2022/08/29 02:17:06;;;;;;;64.17;39.48;;;;;;;15.43;100.00;98962.53;1747187;80;20898;-74
2022/08/29 02:19:33;;;;;;;70.28;38.23;;;;;;;15.54;100.00;98957.74;1747676;81;21425;-75
2022/08/29 02:22:01;;;;;;;57.07;37.20;;;;;;;15.59;100.00;98962.49;1748136;80;21251;-74
2022/08/29 02:24:29;;;;;;;74.20;41.55;;;;;;;15.63;100.00;98968.11;1753287;81;20950;-75
2022/08/29 02:26:56;;;;;;;64.50;37.90;;;;;;;15.60;100.00;98970.84;1751880;81;20962;-74
2022/08/29 02:29:25;;;;;;;64.40;39.92;;;;;;;15.56;100.00;98969.06;1720083;81;21443;-74
2022/08/29 02:31:52;;;;;;;;;;;;;;;15.54;100.00;98977.47;1750436;80;20895;-74
2022/08/29 02:34:19;;;;;;;67.05;37.38;;;;;;;15.54;100.00;98973.97;1747784;81;21257;-74
2022/08/29 02:36:46;;;;;;;61.50;37.23;;;;;;;15.51;100.00;98977.28;1742082;80;20908;-75
2022/08/29 02:39:13;;;;;;;58.73;35.75;;;;;;;15.47;100.00;98981.13;1753273;81;20948;-75
2022/08/29 02:41:40;;;;;;;66.10;39.90;;;;;;;15.40;100.00;98979.36;1753416;81;21438;-74
2022/08/29 02:44:07;;;;;;;65.03;39.00;;;;;;;15.33;100.00;98978.39;1753144;81;20972;-74
2022/08/29 02:46:33;;;;;;;65.90;36.80;;;;;;;15.34;100.00;98983.28;1753320;80;21784;-74
2022/08/29 02:49:00;;;;;;;62.70;37.50;;;;;;;15.35;100.00;98976.20;1753198;81;20903;-74
2022/08/29 02:51:30;;;;;;;63.13;37.30;;;;;;;15.35;100.00;98984.87;1752755;81;20962;-74
2022/08/29 02:53:57;;;;;;;62.75;37.80;;;;;;;15.31;100.00;98986.55;1747436;80;20964;-74
2022/08/29 02:56:24;;;;;;;63.83;38.50;;;;;;;15.28;100.00;98984.45;1748793;80;20892;-73
2022/08/29 02:58:50;;;;;;;62.13;39.35;;;;;;;15.20;100.00;98983.25;1737310;80;21232;-73
2022/08/29 03:01:19;;;;;;;55.90;36.83;;;;;;;15.15;100.00;98987.39;1752993;80;20979;-74
2022/08/29 03:03:46;;;;;;;62.93;37.73;;;;;;;15.09;100.00;98973.70;1753050;81;20931;-74
2022/08/29 03:06:12;;;;;;;59.33;38.58;;;;;;;15.08;100.00;98985.07;1747413;80;21367;-74
2022/08/29 03:08:40;;;;;;;65.45;40.28;;;;;;;15.07;100.00;98984.83;1753820;80;20911;-74
2022/08/29 03:11:07;;;;;;;58.42;37.73;;;;;;;15.02;100.00;98983.57;1746947;81;21108;-74
2022/08/29 03:13:34;;;;;;;112.72;69.60;;;;;;;15.01;100.00;98994.11;1747965;80;20926;-74
2022/08/29 03:16:02;;;;;;;193.13;108.92;;;;;;;14.96;100.00;98999.05;1753321;81;20922;-74
2022/08/29 03:18:29;;;;;;;239.72;122.33;;;;;;;14.88;100.00;99004.34;1751412;80;21452;-74
2022/08/29 03:20:57;;;;;;;176.95;94.20;;;;;;;14.86;100.00;99000.58;1725991;83;20972;-74
2022/08/29 03:23:23;;;;;;;165.92;84.22;;;;;;;14.83;100.00;98997.12;1723610;81;21221;-74
2022/08/29 03:25:50;;;;;;;145.38;79.03;;;;;;;14.78;100.00;98999.35;1748612;80;20914;-75
2022/08/29 03:28:17;;;;;;;133.95;68.22;;;;;;;14.73;100.00;99002.14;1748346;82;20982;-74
2022/08/29 03:30:44;;;;;;;99.45;56.48;;;;;;;14.71;100.00;99000.83;1746435;81;20942;-74
2022/08/29 03:33:11;;;;;;;80.17;43.75;;;;;;;14.69;100.00;99000.31;1743800;81;20882;-74
2022/08/29 03:35:38;;;;;;;68.20;41.83;;;;;;;14.72;100.00;99001.89;1743601;80;21213;-74
2022/08/29 03:38:05;;;;;;;73.25;41.98;;;;;;;14.78;100.00;99002.05;1748744;82;21005;-74
2022/08/29 03:40:32;;;;;;;75.80;40.15;;;;;;;14.86;100.00;99006.53;1748425;82;20855;-74
2022/08/29 03:42:59;;;;;;;58.33;36.70;;;;;;;14.93;100.00;99002.91;1748862;81;20883;-74
2022/08/29 03:45:26;;;;;;;60.17;39.73;;;;;;;15.07;100.00;99011.06;1741442;80;20943;-74
2022/08/29 03:47:53;;;;;;;75.05;41.05;;;;;;;15.14;100.00;99005.52;1727582;83;21959;-74
2022/08/29 03:50:20;;;;;;;61.35;39.58;;;;;;;15.21;100.00;99007.81;1752505;80;20885;-74
2022/08/29 03:52:47;;;;;;;68.00;39.90;;;;;;;15.31;100.00;99002.25;1723944;82;21052;-74
2022/08/29 03:55:15;;;;;;;69.77;40.73;;;;;;;15.41;100.00;99001.27;1723334;81;20932;-74
2022/08/29 03:57:42;;;;;;;65.67;39.27;;;;;;;15.48;100.00;99004.34;1748773;81;20851;-74
2022/08/29 04:00:14;;;;;;;64.23;40.30;;;;;;;15.54;100.00;99015.34;1748863;82;21278;-74
2022/08/29 04:02:44;;;;;;;67.10;38.48;;;;;;;15.59;100.00;99010.38;1747638;81;20835;-74
2022/08/29 04:05:12;;;;;;;69.12;40.63;;;;;;;15.68;100.00;99009.94;1741765;81;20931;-75
2022/08/29 04:07:51;;;;;;;68.85;40.43;;;;;;;15.78;100.00;99006.27;1691948;83;20944;-75
2022/08/29 04:10:30;;;;;;;66.30;40.43;;;;;;;15.85;100.00;99006.66;1753796;80;21476;-74
2022/08/29 04:12:57;;;;;;;56.92;37.98;;;;;;;15.99;100.00;99008.78;1738718;80;21225;-74
2022/08/29 04:15:26;;;;;;;66.42;39.67;;;;;;;16.18;100.00;99013.28;1716421;83;21002;-75
2022/08/29 04:17:55;;;;;;;64.82;38.67;;;;;;;16.37;100.00;99009.87;1725502;83;21129;-74
2022/08/29 04:20:25;;;;;;;62.45;39.27;;;;;;;16.59;100.00;99009.11;1722960;82;20872;-75
2022/08/29 04:22:53;;;;;;;63.75;38.53;;;;;;;16.75;100.00;99014.16;1720864;83;20996;-75
2022/08/29 04:25:20;;;;;;;58.63;37.15;;;;;;;16.95;100.00;99010.18;1721475;83;21435;-74
2022/08/29 04:27:48;;;;;;;50.03;31.70;;;;;;;17.18;100.00;99010.41;1725526;82;20943;-75
2022/08/29 04:30:17;;;;;;;55.25;32.42;;;;;;;17.47;100.00;99012.64;1719070;83;20968;-75
2022/08/29 04:32:44;;;;;;;50.30;30.70;;;;;;;17.68;100.00;99014.78;1725269;82;21009;-74
2022/08/29 04:35:11;;;;;;;47.03;28.75;;;;;;;17.77;100.00;99013.70;1720974;83;20956;-74
2022/08/29 04:37:40;;;;;;;49.65;31.15;;;;;;;17.91;100.00;99019.05;1720609;82;21151;-74
2022/08/29 04:40:09;;;;;;;52.62;28.55;;;;;;;18.13;100.00;99015.44;1721794;82;20948;-75
2022/08/29 04:42:37;;;;;;;49.05;27.17;;;;;;;18.36;100.00;99018.81;1722755;82;21062;-75
2022/08/29 04:45:06;;;;;;;47.33;26.27;;;;;;;18.52;100.00;99018.33;1723926;82;21498;-74
2022/08/29 04:47:37;;;;;;;48.80;26.33;;;;;;;18.73;100.00;99029.38;1721194;82;20857;-74
2022/08/29 04:50:06;;;;;;;44.38;24.92;;;;;;;18.94;100.00;99022.20;1724139;82;21303;-76
2022/08/29 04:52:33;;;;;;;44.95;26.50;;;;;;;19.16;100.00;99024.48;1712013;82;20878;-75
2022/08/29 04:55:00;;;;;;;35.90;24.82;;;;;;;19.25;100.00;99032.84;1721449;83;20885;-75
2022/08/29 04:57:27;;;;;;;40.57;25.67;;;;;;;19.26;100.00;99039.10;1714746;82;20924;-76
2022/08/29 04:59:55;;;;;;;46.57;25.67;;;;;;;19.34;100.00;99038.84;1721827;83;20856;-75
2022/08/29 05:02:22;;;;;;;37.23;24.23;;;;;;;19.54;100.00;99034.04;1721091;83;21243;-77
2022/08/29 05:04:51;;;;;;;40.50;24.77;;;;;;;19.76;100.00;99043.91;1722993;83;20950;-75
2022/08/29 05:07:20;;;;;;;39.40;24.02;;;;;;;20.00;100.00;99039.80;1720869;82;20920;-73
2022/08/29 05:09:57;;;;;;;33.40;21.93;;;;;;;20.20;100.00;99037.67;1742194;80;21426;-73
2022/08/29 05:12:25;;;;;;;37.75;21.62;;;;;;;20.38;100.00;99038.92;1742243;80;20901;-73
2022/08/29 05:14:53;;;;;;;30.95;21.10;;;;;;;20.71;100.00;99042.55;1753444;81;21448;-72
2022/08/29 05:17:21;;;;;;;30.77;18.42;;;;;;;20.89;100.00;99043.19;1751752;81;20919;-74
2022/08/29 05:19:49;;;;;;;28.87;18.55;;;;;;;21.18;100.00;99042.84;1750646;80;20890;-73
2022/08/29 05:22:16;;;;;;;;;;;;;;;21.34;100.00;99043.81;1754269;80;20858;-73
2022/08/29 05:24:43;;;;;;;40.65;19.90;;;;;;;21.68;100.00;99035.56;1754000;81;20186;-74
2022/08/29 05:27:14;;;;;;;29.27;18.07;;;;;;;22.15;100.00;99041.39;1751768;80;21254;-73
2022/08/29 05:29:43;;;;;;;24.60;16.48;;;;;;;22.42;100.00;99037.16;1725927;81;20910;-71
2022/08/29 05:32:11;;;;;;;37.17;17.40;;;;;;;22.61;98.81;99040.65;1723217;81;20933;-75
2022/08/29 05:34:38;;;;;;;;;;;;;;;22.94;94.77;99047.02;1730211;81;20894;-75
2022/08/29 05:37:08;;;;;;;25.82;17.65;;;;;;;23.32;90.64;99042.40;1751143;80;20173;-75
2022/08/29 05:39:37;;;;;;;25.80;15.58;;;;;;;23.48;87.94;99039.11;1724940;83;21653;-76
2022/08/29 05:42:06;;;;;;;31.80;16.50;;;;;;;23.80;84.47;99052.84;1723480;81;20846;-75
2022/08/29 05:44:34;;;;;;;26.80;15.53;;;;;;;23.98;80.87;99053.84;1722405;81;20890;-72
2022/08/29 05:47:03;;;;;;;22.98;16.02;;;;;;;23.95;78.97;99056.73;1700042;83;21428;-73
2022/08/29 05:49:30;;;;;;;25.97;15.95;;;;;;;23.93;78.75;99068.61;1724494;81;20921;-72
2022/08/29 05:51:59;;;;;;;28.52;16.37;;;;;;;23.78;79.07;99066.69;1752991;80;21499;-71
2022/08/29 05:54:26;;;;;;;27.37;15.98;;;;;;;23.97;78.92;99066.77;1726258;83;20976;-70
2022/08/29 05:56:53;;;;;;;22.90;16.03;;;;;;;24.25;78.84;99067.20;1745157;81;20879;-73
2022/08/29 05:59:20;;;;;;;19.73;15.40;;;;;;;24.77;74.46;99066.03;1742045;82;20922;-70
2022/08/29 06:01:47;;;;;;;47.05;16.67;;;;;;;25.01;69.94;99075.34;1755374;81;20988;-71
2022/08/29 06:04:14;;;;;;;27.15;13.03;;;;;;;25.19;70.24;99070.22;1753302;80;21312;-71
2022/08/29 06:06:41;;;;;;;22.52;13.70;;;;;;;25.48;69.10;99074.88;1752866;80;20957;-72
2022/08/29 06:09:08;;;;;;;15.75;12.65;;;;;;;25.47;66.76;99077.39;1728726;82;20929;-75
2022/08/29 06:11:35;;;;;;;24.32;13.30;;;;;;;25.76;65.04;99074.56;1751110;80;21575;-73
2022/08/29 06:14:02;;;;;;;22.75;13.83;;;;;;;25.79;64.80;99077.94;1742780;80;20863;-74
2022/08/29 06:16:31;;;;;;;22.40;12.95;;;;;;;25.79;63.26;99080.69;1747537;80;21635;-73
2022/08/29 06:18:59;;;;;;;23.52;13.00;;;;;;;25.93;62.98;99076.64;1722378;81;21483;-73
2022/08/29 06:21:25;;;;;;;31.35;13.85;;;;;;;26.07;61.63;99080.41;1747423;80;20934;-74
2022/08/29 06:23:52;;;;;;;18.00;11.95;;;;;;;26.35;60.74;99086.70;1721185;81;20892;-75
2022/08/29 06:26:19;;;;;;;17.98;11.53;;;;;;;26.44;60.12;99092.16;1745702;80;21002;-75
2022/08/29 06:28:46;;;;;;;21.85;12.20;;;;;;;26.46;59.26;99086.28;1723792;81;21219;-74
2022/08/29 06:31:25;;;;;;;15.88;11.05;;;;;;;26.40;59.84;99087.76;1748271;80;21051;-75
2022/08/29 06:33:54;;;;;;;23.10;13.08;;;;;;;26.57;58.52;99086.45;1723262;81;21486;-73
2022/08/29 06:36:24;;;;;;;17.60;11.40;;;;;;;26.81;58.42;99090.70;1747761;81;20919;-74
2022/08/29 06:38:52;;;;;;;24.82;12.88;;;;;;;27.10;56.79;99094.60;1753260;81;20856;-75
2022/08/29 06:41:19;;;;;;;19.62;11.45;;;;;;;27.09;55.97;99095.16;1731830;81;21212;-73
2022/08/29 06:43:46;;;;;;;29.32;12.75;;;;;;;27.32;55.93;99091.53;1753655;80;20851;-76
2022/08/29 06:46:23;;;;;;;22.70;11.30;;;;;;;27.77;54.47;99089.59;1747696;80;20895;-72
2022/08/29 06:48:51;;;;;;;21.42;11.15;;;;;;;27.79;53.15;99095.52;1749236;80;20903;-73
2022/08/29 06:51:18;;;;;;;65.87;14.98;;;;;;;28.12;52.32;99100.14;1711907;82;20900;-72
2022/08/29 06:53:45;;;;;;;22.50;12.35;;;;;;;28.42;51.81;99097.80;1751334;81;21136;-75
2022/08/29 06:56:11;;;;;;;22.40;11.90;;;;;;;28.85;50.40;99104.95;1737578;80;20966;-74
2022/08/29 06:58:38;;;;;;;23.83;11.55;;;;;;;28.98;48.91;99102.06;1753498;80;21477;-76
2022/08/29 07:01:14;;;;;;;19.02;11.00;;;;;;;29.05;48.75;99109.56;1747945;80;20868;-73
2022/08/29 07:03:41;;;;;;;23.77;10.10;;;;;;;29.38;48.08;99116.03;1738169;80;20863;-74
2022/08/29 07:06:09;;;;;;;27.50;16.48;;;;;;;29.51;47.31;99113.09;1723422;81;21173;-72
2022/08/29 07:08:35;;;;;;;16.97;11.30;;;;;;;29.59;46.68;99122.19;1753509;80;21766;-74
2022/08/29 07:11:02;;;;;;;21.60;10.07;;;;;;;29.67;46.27;99116.31;1744084;80;20888;-73
2022/08/29 07:13:28;;;;;;;22.62;9.53;;;;;;;29.87;46.12;99121.47;1746411;80;20887;-74
2022/08/29 07:15:56;;;;;;;22.82;10.28;;;;;;;29.76;45.19;99114.53;1750531;80;20958;-73
2022/08/29 07:18:22;;;;;;;22.17;9.85;;;;;;;29.82;44.88;99113.56;1723078;83;21924;-74
2022/08/29 07:20:49;;;;;;;21.15;9.28;;;;;;;30.27;43.97;99115.34;1722738;83;20890;-70
2022/08/29 07:23:16;;;;;;;15.88;8.55;;;;;;;30.53;41.87;99123.22;1732717;81;20922;-72
2022/08/29 07:25:43;;;;;;;19.27;9.40;;;;;;;30.62;41.95;99124.17;1722700;81;20891;-72
2022/08/29 07:28:09;;;;;;;20.88;9.35;;;;;;;30.98;41.20;99120.72;1722794;83;20939;-71
2022/08/29 07:30:37;;;;;;;22.37;9.90;;;;;;;30.93;40.43;99126.69;1738173;81;21894;-76
2022/08/29 07:33:04;;;;;;;23.52;10.18;;;;;;;30.88;40.62;99132.64;1695039;83;20889;-73
2022/08/29 07:35:32;;;;;;;16.25;9.18;;;;;;;30.63;40.71;99129.92;1751872;80;20934;-74
2022/08/29 07:38:02;;;;;;;14.25;9.50;;;;;;;30.47;40.76;99135.09;1753455;81;21487;-71
2022/08/29 07:40:29;;;;;;;19.48;8.70;;;;;;;30.58;40.44;99133.70;1753412;80;21166;-74
2022/08/29 07:42:56;;;;;;;16.15;9.68;;;;;;;30.65;39.97;99133.66;1750353;80;21304;-71
2022/08/29 07:45:22;;;;;;;12.47;7.97;;;;;;;30.54;41.03;99135.86;1726817;81;20921;-75
2022/08/29 07:47:50;;;;;;;14.63;9.05;;;;;;;30.55;40.37;99133.31;1751932;80;20989;-74
2022/08/29 07:50:17;;;;;;;21.87;8.50;;;;;;;30.62;40.85;99138.02;1753458;80;20934;-73
2022/08/29 07:52:43;;;;;;;20.62;9.80;;;;;;;30.93;39.58;99141.92;1752508;80;20846;-73
2022/08/29 07:55:10;;;;;;;17.02;8.80;;;;;;;30.89;38.98;99141.17;1750724;80;21233;-73
2022/08/29 07:57:38;;;;;;;17.70;9.18;;;;;;;31.02;38.99;99140.13;1752346;80;20965;-73
2022/08/29 08:00:11;;;;;;;20.60;8.23;;;;;;;31.15;38.46;99137.08;1732188;81;20914;-71
2022/08/29 08:02:37;;;;;;;12.25;8.35;;;;;;;31.23;38.25;99131.51;1750533;80;20961;-70
2022/08/29 08:05:06;;;;;;;16.10;8.18;;;;;;;31.38;37.24;99136.59;1753389;80;20890;-73
2022/08/29 08:07:33;;;;;;;21.42;8.18;;;;;;;31.46;37.41;99139.36;1753396;80;21118;-73
2022/08/29 08:10:01;;;;;;;17.25;8.13;;;;;;;31.68;37.06;99139.41;1751814;80;20974;-72
2022/08/29 08:12:29;;;;;;;12.98;6.85;;;;;;;31.89;36.66;99137.67;1749363;80;20911;-74
2022/08/29 08:14:55;;;;;;;21.42;7.83;;;;;;;31.90;37.13;99142.82;1747796;80;20970;-73
2022/08/29 08:17:23;;;;;;;19.50;7.67;;;;;;;31.94;35.52;99138.62;1753079;80;20864;-74
2022/08/29 08:19:50;;;;;;;;;;;;;;;31.67;36.13;99149.52;1750106;80;21425;-73
2022/08/29 08:22:16;;;;;;;10.93;6.47;;;;;;;31.51;36.30;99148.63;1747567;81;20612;-75
2022/08/29 08:24:43;;;;;;;11.55;7.67;;;;;;;31.72;36.58;99142.14;1749013;81;21182;-75
2022/08/29 08:27:10;;;;;;;;;;;;;;;31.85;35.74;99143.26;1755140;81;20915;-76
2022/08/29 08:29:37;;;;;;;41.92;9.13;;;;;;;31.80;36.06;99140.31;1753264;81;26770;-76
2022/08/29 08:32:05;;;;;;;18.35;7.60;;;;;;;31.85;35.61;99143.83;1752933;81;22222;-77
2022/08/29 08:34:32;;;;;;;18.15;8.05;;;;;;;31.81;35.53;99143.27;1747926;80;20963;-71
2022/08/29 08:36:59;;;;;;;12.40;7.75;;;;;;;31.90;35.48;99141.44;1747751;81;20943;-72
2022/08/29 08:39:26;;;;;;;15.18;7.40;;;;;;;31.91;36.01;99144.99;1735878;80;21470;-74
2022/08/29 08:42:06;;;;;;;14.98;8.33;;;;;;;31.96;36.19;99136.26;1750851;81;20887;-75
2022/08/29 08:44:52;;;;;;;13.55;6.42;;;;;;;31.78;35.90;99139.93;1746237;80;21907;-77
2022/08/29 08:47:27;;;;;;;22.05;8.43;;;;;;;31.46;36.14;99135.98;1752965;81;20856;-76
2022/08/29 08:49:59;;;;;;;17.62;7.30;;;;;;;31.49;36.01;99127.45;1747660;80;20864;-76
2022/08/29 08:52:49;;;;;;;13.85;7.67;;;;;;;31.55;35.80;99141.84;1753224;81;20900;-75
2022/08/29 08:55:34;;;;;;;16.42;7.65;;;;;;;31.50;36.06;99141.49;1747351;80;20951;-75
2022/08/29 08:58:13;;;;;;;20.23;7.67;;;;;;;31.76;35.67;99136.77;1747259;80;21229;-71
2022/08/29 09:00:51;;;;;;;10.88;7.65;;;;;;;31.97;35.73;99137.82;1747698;80;20939;-72
2022/08/29 09:03:41;;;;;;;18.65;7.92;;;;;;;31.88;35.99;99139.66;1748127;80;21051;-75
2022/08/29 09:06:30;;;;;;;106.75;13.62;;;;;;;32.02;35.24;99129.88;1750795;81;20907;-74
2022/08/29 09:09:14;;;;;;;17.23;6.67;;;;;;;31.69;35.77;99133.26;1752173;81;20986;-74
2022/08/29 09:12:11;;;;;;;18.30;8.40;;;;;;;31.63;35.30;99131.52;1752805;81;21931;-72
2022/08/29 09:15:03;;;;;;;17.92;8.00;;;;;;;31.47;36.12;99132.60;1724533;81;20881;-74
2022/08/29 09:18:06;;;;;;;15.08;7.12;;;;;;;31.49;35.77;99139.32;1725020;81;20927;-75
2022/08/29 09:20:36;;;;;;;36.73;9.85;;;;;;;31.55;36.19;99134.91;1724238;81;22172;-73
2022/08/29 09:23:34;;;;;;;20.95;7.00;;;;;;;31.74;36.34;99139.76;1717799;81;20892;-74
2022/08/29 09:26:01;;;;;;;23.05;7.37;;;;;;;31.62;36.33;99136.86;1714294;82;21136;-72
2022/08/29 09:28:29;;;;;;;19.15;7.12;;;;;;;31.97;36.02;99134.47;1714362;83;20979;-74
2022/08/29 09:31:24;;;;;;;19.37;6.55;;;;;;;32.12;36.05;99133.75;1724489;82;21026;-73
2022/08/29 09:33:59;;;;;;;16.95;6.92;;;;;;;32.32;34.89;99139.52;1724211;81;20897;-77
2022/08/29 09:36:51;;;;;;;15.75;6.53;;;;;;;32.52;35.31;99132.80;1724260;81;21541;-75
2022/08/29 09:39:30;;;;;;;26.20;6.75;;;;;;;32.64;35.30;99130.89;1711772;82;21288;-76
2022/08/29 09:42:12;;;;;;;24.23;6.72;;;;;;;32.77;34.92;99129.75;1713349;81;20971;-75
2022/08/29 09:44:42;;;;;;;26.25;6.15;;;;;;;33.21;34.89;99137.00;1722241;83;20928;-74
2022/08/29 09:47:31;;;;;;;17.37;6.08;;;;;;;33.19;35.08;99135.23;1726377;81;21459;-77
2022/08/29 09:50:23;;;;;;;16.07;5.87;;;;;;;33.01;34.25;99137.61;1717216;81;21037;-74
2022/08/29 09:52:57;;;;;;;19.48;6.42;;;;;;;32.74;34.21;99132.58;1720228;81;22006;-73
2022/08/29 09:55:34;;;;;;;19.12;6.35;;;;;;;32.63;35.22;99119.60;1724132;83;20912;-75
2022/08/29 09:58:06;;;;;;;;;;;;;;;32.35;34.46;99128.19;1713477;81;20886;-74
2022/08/29 10:00:40;;;;;;;15.80;5.78;;;;;;;32.37;35.20;99121.62;1717697;83;20572;-76
2022/08/29 10:03:10;;;;;;;13.03;5.28;;;;;;;32.43;34.89;99126.91;1724992;81;21039;-75
2022/08/29 10:05:43;;;;;;;19.75;5.95;;;;;;;32.71;34.46;99120.88;1726656;83;21780;-76
2022/08/29 10:08:33;;;;;;;23.98;6.40;;;;;;;32.80;34.95;99126.13;1722680;81;20943;-76
2022/08/29 10:11:20;;;;;;;27.87;6.80;;;;;;;33.00;34.31;99126.31;1722293;81;21018;-73
2022/08/29 10:13:56;;;;;;;17.77;5.97;;;;;;;32.97;33.64;99116.61;1740994;80;21500;-74
2022/08/29 10:16:38;;;;;;;18.50;5.60;;;;;;;32.82;33.97;99122.34;1725897;82;20856;-74
2022/08/29 10:19:14;;;;;;;11.93;5.50;;;;;;;32.75;33.58;99115.47;1751434;80;20935;-73
2022/08/29 10:22:01;;;;;;;23.47;7.78;;;;;;;32.76;33.60;99116.29;1757623;81;20919;-72
2022/08/29 10:24:52;;;;;;;;;;;;;;;32.75;33.11;99121.64;1727760;81;20916;-73
2022/08/29 10:27:43;;;;;;;22.67;5.83;;;;;;;32.60;33.39;99120.41;1769562;81;20496;-73
2022/08/29 10:30:16;;;;;;;14.45;5.40;;;;;;;32.55;33.13;99121.47;1761353;80;20887;-74
2022/08/29 10:33:00;;;;;;;22.05;6.17;;;;;;;32.66;33.28;99113.81;1762127;79;22046;-73
2022/08/29 10:35:49;;;;;;;16.85;5.62;;;;;;;32.79;33.75;99119.62;1728709;82;21019;-75
2022/08/29 10:38:33;;;;;;;15.50;5.25;;;;;;;32.92;33.94;99115.08;1752618;80;20923;-75
2022/08/29 10:41:32;;;;;;;9.50;4.45;;;;;;;33.41;32.91;99119.05;1753423;80;21023;-74
2022/08/29 10:44:17;;;;;;;13.85;4.55;;;;;;;33.47;32.42;99117.37;1715738;81;20910;-75
2022/08/29 10:46:51;;;;;;;10.13;4.25;;;;;;;32.75;32.57;99114.09;1731013;81;21152;-75
2022/08/29 10:50:04;;;;;;;10.80;4.60;;;;;;;32.18;33.13;99117.44;1745856;80;21013;-76
2022/08/29 10:53:06;;;;;;;22.50;5.62;;;;;;;31.71;34.27;99107.29;1758169;81;20852;-75
2022/08/29 10:56:05;;;;;;;17.10;5.72;;;;;;;31.37;35.18;99114.20;1751479;80;21417;-76
2022/08/29 10:59:04;;;;;;;12.88;5.12;;;;;;;31.40;35.21;99111.24;1746385;80;20991;-77
2022/08/29 11:01:49;;;;;;;18.05;5.22;;;;;;;31.63;34.67;99114.88;1738502;80;21213;-77
2022/08/29 11:04:24;;;;;;;23.95;5.40;;;;;;;31.71;34.11;99115.01;1757184;80;21022;-76
2022/08/29 11:07:15;;;;;;;19.60;5.70;;;;;;;31.57;34.28;99109.55;1752000;80;21003;-77
2022/08/29 11:09:58;;;;;;;18.73;5.17;;;;;;;31.50;34.63;99116.53;1742418;80;20875;-76
2022/08/29 11:13:04;;;;;;;14.53;5.15;;;;;;;31.30;34.94;99118.39;1723280;82;20850;-75
2022/08/29 11:15:49;;;;;;;14.20;5.33;;;;;;;31.32;34.87;99111.07;1727118;81;21409;-73
2022/08/29 11:18:23;;;;;;;20.23;5.65;;;;;;;31.51;35.03;99111.98;1747099;82;20835;-75
2022/08/29 11:20:55;;;;;;;19.07;5.17;;;;;;;32.08;34.87;99102.45;1733040;81;21516;-76
2022/08/29 11:23:39;;;;;;;12.28;4.92;;;;;;;32.75;33.95;99107.75;1695294;83;20965;-71
2022/08/29 11:26:23;;;;;;;13.78;4.87;;;;;;;32.75;33.47;99107.14;1744827;80;20996;-77
2022/08/29 11:28:59;;;;;;;17.23;5.25;;;;;;;32.43;33.62;99114.41;1716806;80;21222;-75
2022/08/29 11:31:46;;;;;;;15.78;5.78;;;;;;;31.93;34.00;99114.25;1722668;81;20946;-74
2022/08/29 11:34:31;;;;;;;11.50;5.12;;;;;;;31.58;34.56;99120.86;1749263;81;20942;-76
2022/08/29 11:37:37;;;;;;;15.50;5.62;;;;;;;31.27;35.03;99120.59;1749459;80;20895;-73
2022/08/29 11:40:41;;;;;;;18.95;5.08;;;;;;;31.21;35.39;99106.95;1752905;81;21768;-74
2022/08/29 11:43:12;;;;;;;16.25;5.58;;;;;;;31.62;35.69;99107.73;1749887;80;21545;-74